Bookmark and Share
Track history (hours):
 

Nestor

Last reported at 2014-Apr-22 17:03 UTC. Time now 2014-Apr-24 05:58 UTC.
Position N 35°57' W 005°08'.

Length 88 m; draft 5.5 m.

Type: Cargo ship. MMSI: 305620000.

NotesDate/timePositionNaut miles runAvg speedWind from/ knotsBaromVisibWave heightAir tempDewpointWater temp
2014-Apr-22 17:03N 35°57' W 005°08'510.5
2014-Apr-22 16:33N 35°56' W 005°14'4 4.3
2014-Apr-22 15:32N 35°54' W 005°19'0 0.0
2014-Apr-22 14:32N 35°54' W 005°19'0 0.0
2014-Apr-22 13:29N 35°54' W 005°19'0 0.0
2014-Apr-22 12:32N 35°54' W 005°19'0 0.0
2014-Apr-22 11:32N 35°54' W 005°19'0 0.0
2014-Apr-22 10:29N 35°54' W 005°19'1 1.3
2014-Apr-22 09:34N 35°55' W 005°19'6 6.2
2014-Apr-22 08:33N 35°57' W 005°26'12 9.9
2014-Apr-22 07:21N 35°54' W 005°40'  
2014-Apr-17 16:33N 48°04' W 006°29'14 7.1
2014-Apr-17 14:33N 48°16' W 006°19'144 8.3
2014-Apr-16 21:08N 50°15' W 004°14'4 7.7
2014-Apr-16 20:33N 50°19' W 004°10'4 3.3
2014-Apr-16 19:29N 50°22' W 004°08'0 0.0
2014-Apr-16 17:29N 50°22' W 004°08'0 0.0
2014-Apr-16 16:29N 50°22' W 004°08'0 0.0
2014-Apr-16 15:33N 50°22' W 004°08'0 0.0
2014-Apr-16 14:32N 50°22' W 004°08'0 0.0
2014-Apr-16 13:32N 50°22' W 004°08'0 0.0
2014-Apr-16 12:32N 50°22' W 004°08'0 0.0
2014-Apr-16 11:32N 50°22' W 004°08'0 0.0
2014-Apr-16 10:32N 50°22' W 004°08'0 0.0
2014-Apr-16 09:32N 50°22' W 004°08'0 0.0
2014-Apr-16 08:32N 50°22' W 004°08'0 0.0
2014-Apr-16 07:32N 50°22' W 004°08'0 0.0
2014-Apr-16 06:33N 50°22' W 004°08'0 0.0
2014-Apr-16 05:32N 50°22' W 004°08'0 0.0
2014-Apr-16 04:32N 50°22' W 004°08'0 0.0
2014-Apr-16 03:32N 50°22' W 004°08'0 0.0
2014-Apr-16 02:33N 50°22' W 004°08'0 0.0
2014-Apr-16 01:33N 50°22' W 004°08'0 0.0
2014-Apr-16 00:32N 50°22' W 004°08'0 0.0
2014-Apr-15 23:33N 50°22' W 004°08'0 0.0
2014-Apr-15 22:33N 50°22' W 004°08'0 0.0
2014-Apr-15 21:33N 50°22' W 004°08'0 0.0
2014-Apr-15 20:33N 50°22' W 004°08'0 0.0
2014-Apr-15 19:33N 50°22' W 004°08'0 0.0
2014-Apr-15 18:33N 50°22' W 004°08'0 0.0
2014-Apr-15 17:33N 50°22' W 004°08'0 0.0
2014-Apr-15 16:33N 50°22' W 004°08'0 0.0
2014-Apr-15 15:32N 50°22' W 004°08'0 0.0
2014-Apr-15 14:33N 50°22' W 004°08'0 0.0
2014-Apr-15 12:33N 50°22' W 004°08'0 0.0
2014-Apr-15 11:33N 50°22' W 004°08'0 0.0
2014-Apr-15 10:33N 50°22' W 004°08'0 0.0
2014-Apr-15 09:33N 50°22' W 004°08'0 0.0
2014-Apr-15 08:33N 50°22' W 004°08'0 0.0
2014-Apr-15 07:33N 50°22' W 004°08'0 0.0
2014-Apr-15 06:33N 50°22' W 004°08'0 0.0
2014-Apr-15 05:33N 50°22' W 004°08'0 0.0
2014-Apr-15 03:33N 50°22' W 004°08'0 0.0
2014-Apr-15 02:33N 50°22' W 004°08'0 0.0
2014-Apr-15 01:33N 50°22' W 004°08'0 0.0
2014-Apr-15 00:33N 50°22' W 004°08'0 0.0
2014-Apr-14 23:33N 50°22' W 004°08'0 0.0
2014-Apr-14 22:33N 50°22' W 004°08'0 0.0
2014-Apr-14 21:33N 50°22' W 004°08'0 0.0
2014-Apr-14 20:33N 50°22' W 004°08'0 0.0
2014-Apr-14 19:33N 50°22' W 004°08'0 0.0
2014-Apr-14 18:34N 50°22' W 004°08'1 1.1
2014-Apr-14 17:29N 50°21' W 004°09'0 0.0
2014-Apr-14 16:29N 50°21' W 004°09'0 0.0
2014-Apr-14 15:32N 50°21' W 004°09'0 0.0
2014-Apr-14 14:32N 50°21' W 004°09'0 0.0
2014-Apr-14 13:32N 50°21' W 004°09'0 0.0
2014-Apr-14 11:32N 50°21' W 004°09'0 0.1
2014-Apr-14 10:32N 50°21' W 004°09'0 0.0
2014-Apr-14 09:29N 50°21' W 004°09'0 0.0
2014-Apr-14 07:32N 50°21' W 004°09'0 0.0
2014-Apr-14 05:32N 50°21' W 004°09'0 0.0
2014-Apr-13 22:32N 50°21' W 004°09'0 0.0
2014-Apr-13 21:32N 50°21' W 004°09'0 0.0
2014-Apr-13 20:32N 50°21' W 004°09'0 0.0
2014-Apr-13 19:32N 50°21' W 004°09'0 0.0
2014-Apr-13 18:32N 50°21' W 004°09'0 0.0
2014-Apr-13 17:32N 50°21' W 004°09'0 0.0
2014-Apr-13 16:32N 50°21' W 004°09'0 0.0
2014-Apr-13 15:32N 50°21' W 004°09'0 0.0
2014-Apr-13 14:32N 50°21' W 004°09'0 0.0
2014-Apr-13 13:26N 50°21' W 004°09'0 0.0
2014-Apr-13 12:32N 50°21' W 004°09'0 0.0
2014-Apr-13 11:32N 50°21' W 004°09'0 0.1
2014-Apr-13 10:29N 50°21' W 004°09'0 0.0
2014-Apr-13 09:32N 50°21' W 004°09'0 0.0
2014-Apr-13 06:08N 50°21' W 004°09'0 0.0
2014-Apr-13 05:29N 50°21' W 004°09'0 0.0
2014-Apr-13 04:32N 50°21' W 004°09'0 0.0
2014-Apr-13 03:32N 50°21' W 004°09'0 0.1
2014-Apr-13 02:32N 50°21' W 004°09'0 0.0
2014-Apr-13 01:32N 50°21' W 004°09'0 0.0
2014-Apr-13 00:32N 50°21' W 004°09'0 0.0
2014-Apr-12 23:29N 50°21' W 004°09'0 0.0
2014-Apr-12 22:32N 50°21' W 004°09'0 0.0
2014-Apr-12 21:32N 50°21' W 004°09'0 0.0
2014-Apr-12 20:26N 50°21' W 004°09'0 0.0
2014-Apr-12 19:29N 50°21' W 004°09'0 0.0
2014-Apr-12 17:11N 50°21' W 004°09'  

Dump ship's entire track history

sailing weather and tide predictions

Nestor — V2FB3 — position and weather